createdAt,value
2024-04-14T00:02:07.272Z,152860.25
2024-04-14T00:04:37.049Z,152833.59
2024-04-14T00:07:04.145Z,152846.28
2024-04-14T00:09:31.047Z,152818.34
2024-04-14T00:11:57.857Z,152785.28
2024-04-14T00:14:24.725Z,152794.16
2024-04-14T00:16:51.859Z,152814.53
2024-04-14T00:19:18.684Z,152817.06
2024-04-14T00:21:48.579Z,152799.28
2024-04-14T00:24:15.360Z,152781.50
2024-04-14T00:26:42.134Z,152761.16
2024-04-14T00:29:09.037Z,152761.16
2024-04-14T00:31:35.816Z,152729.38
2024-04-14T00:34:02.772Z,152735.72
2024-04-14T00:36:29.661Z,152697.63
2024-04-14T00:38:59.125Z,152729.38
2024-04-14T00:41:25.871Z,152733.19
2024-04-14T00:43:52.675Z,152698.88
2024-04-14T00:46:20.063Z,152700.16
2024-04-14T00:48:47.091Z,152712.88
2024-04-14T00:51:14.314Z,152659.47
2024-04-14T00:53:41.131Z,152660.72
2024-04-14T00:56:11.513Z,152674.72
2024-04-14T00:58:38.528Z,152665.78
2024-04-14T01:01:06.759Z,152635.34
2024-04-14T01:03:34.708Z,152621.34
2024-04-14T01:06:01.740Z,152628.97
2024-04-14T01:08:29.644Z,152634.06
2024-04-14T01:10:56.487Z,152620.09
2024-04-14T01:13:25.961Z,152587.06
2024-04-14T01:15:52.811Z,152555.31
2024-04-14T01:18:19.647Z,152574.34
2024-04-14T01:20:46.402Z,152576.88
2024-04-14T01:23:13.231Z,152561.69
2024-04-14T01:25:42.671Z,152543.91
2024-04-14T01:28:09.767Z,152531.19
2024-04-14T01:30:36.623Z,152521.00
2024-04-14T01:33:03.610Z,152521.00
2024-04-14T01:35:30.472Z,152493.09
2024-04-14T01:38:08.604Z,152482.94
2024-04-14T01:40:39.250Z,152493.09
2024-04-14T01:43:08.942Z,152456.28
2024-04-14T01:45:36.514Z,152432.13
2024-04-14T01:48:14.072Z,152414.34
2024-04-14T01:50:47.164Z,152392.75
2024-04-14T01:53:14.047Z,152350.88
2024-04-14T01:55:43.820Z,152326.78
2024-04-14T01:58:13.266Z,152331.84
2024-04-14T02:00:40.149Z,152329.31
2024-04-14T02:03:07.152Z,152329.31
2024-04-14T02:05:34.048Z,152326.78
2024-04-14T02:08:00.805Z,152322.94
2024-04-14T02:10:27.546Z,152320.38
2024-04-14T02:12:54.383Z,152306.41
2024-04-14T02:15:26.609Z,152305.16
2024-04-14T02:17:53.490Z,152293.75
2024-04-14T02:20:28.813Z,152282.31
2024-04-14T02:22:58.058Z,152303.88
2024-04-14T02:25:25.333Z,152289.97
2024-04-14T02:27:53.027Z,152249.31
2024-04-14T02:30:26.131Z,152235.41
2024-04-14T02:32:52.912Z,152217.66
2024-04-14T02:35:23.123Z,152213.81
2024-04-14T02:37:49.870Z,152234.09
2024-04-14T02:40:16.812Z,152249.31
2024-04-14T02:42:43.529Z,152239.19
2024-04-14T02:45:10.401Z,152215.06
2024-04-14T02:47:39.818Z,152206.22
2024-04-14T02:50:07.836Z,152210.00
2024-04-14T02:52:34.582Z,152190.97
2024-04-14T02:55:01.426Z,152189.72
2024-04-14T02:57:28.259Z,152122.47
2024-04-14T02:59:55.421Z,152119.94
2024-04-14T03:02:22.296Z,152128.84
2024-04-14T03:04:51.823Z,152130.09
2024-04-14T03:07:18.562Z,152103.44
2024-04-14T03:09:45.268Z,152079.31
2024-04-14T03:12:12.030Z,152069.16
2024-04-14T03:14:38.841Z,152066.63
2024-04-14T03:17:05.938Z,152056.50
2024-04-14T03:19:32.652Z,152085.63
2024-04-14T03:22:02.055Z,152052.66
2024-04-14T03:24:28.858Z,152086.91
2024-04-14T03:26:55.682Z,152043.81
2024-04-14T03:29:22.425Z,152057.75
2024-04-14T03:31:49.389Z,152069.16
2024-04-14T03:34:16.102Z,152056.50
2024-04-14T03:36:42.879Z,152059.03
2024-04-14T03:39:12.412Z,152070.41
2024-04-14T03:41:39.187Z,152075.50
2024-04-14T03:44:05.962Z,152056.50
2024-04-14T03:46:32.785Z,152010.81
2024-04-14T03:48:59.643Z,152008.28
2024-04-14T03:51:26.487Z,152018.47
2024-04-14T03:53:53.307Z,151990.53
2024-04-14T03:56:22.782Z,151957.56
2024-04-14T03:58:49.525Z,151939.81
2024-04-14T04:01:16.388Z,151952.50
2024-04-14T04:03:43.368Z,151957.56
2024-04-14T04:06:10.287Z,151957.56
2024-04-14T04:08:37.129Z,151994.34
2024-04-14T04:11:05.609Z,151936.03
2024-04-14T04:13:35.493Z,151927.13
2024-04-14T04:16:03.556Z,151927.13
2024-04-14T04:18:31.211Z,151911.94
2024-04-14T04:20:59.300Z,151918.28
2024-04-14T04:23:26.656Z,151905.59
2024-04-14T04:25:54.004Z,151924.59
2024-04-14T04:28:20.726Z,151904.31
2024-04-14T04:30:50.311Z,151891.69
2024-04-14T04:33:17.756Z,151892.94
2024-04-14T04:35:52.065Z,151863.78
2024-04-14T04:38:18.826Z,151898.00
2024-04-14T04:40:45.616Z,151892.94
2024-04-14T04:43:12.498Z,151886.56
2024-04-14T04:45:39.377Z,151932.22
2024-04-14T04:48:09.305Z,151898.00
2024-04-14T04:50:36.173Z,151890.38
2024-04-14T04:53:02.987Z,151889.09
2024-04-14T04:55:29.749Z,151871.34
2024-04-14T04:57:56.572Z,151846.03
2024-04-14T05:00:23.508Z,151859.97
2024-04-14T05:02:50.369Z,151830.81
2024-04-14T05:05:23.083Z,151840.97
2024-04-14T05:07:49.870Z,151858.72
2024-04-14T05:10:16.761Z,151838.44
2024-04-14T05:12:43.510Z,151829.53
2024-04-14T05:15:10.326Z,151844.75
2024-04-14T05:17:37.227Z,151880.25
2024-04-14T05:20:04.708Z,151877.72
2024-04-14T05:22:34.127Z,151868.81
2024-04-14T05:25:00.989Z,151895.47
2024-04-14T05:27:27.850Z,151865.03
2024-04-14T05:29:54.992Z,151879.00
2024-04-14T05:32:21.819Z,151839.72
2024-04-14T05:34:51.094Z,151815.59
2024-04-14T05:37:17.822Z,151833.34
2024-04-14T05:39:47.203Z,151853.59
2024-04-14T05:42:14.016Z,151827.00
2024-04-14T05:44:45.776Z,151871.34
2024-04-14T05:47:12.556Z,151879.00
2024-04-14T05:49:39.341Z,151892.94
2024-04-14T05:52:06.860Z,151948.72
2024-04-14T05:54:34.565Z,151933.50
2024-04-14T05:57:04.675Z,151946.19
2024-04-14T05:59:31.481Z,151938.56
2024-04-14T06:01:58.234Z,151936.03
2024-04-14T06:04:25.201Z,151891.69
2024-04-14T06:06:52.582Z,151871.34
2024-04-14T06:09:19.416Z,151889.09
2024-04-14T06:11:46.174Z,151949.97
2024-04-14T06:14:15.610Z,151919.53
2024-04-14T06:16:42.493Z,151908.13
2024-04-14T06:19:09.376Z,151913.22
2024-04-14T06:21:36.179Z,151942.34
2024-04-14T06:24:02.995Z,151934.75
2024-04-14T06:26:30.141Z,151949.97
2024-04-14T06:28:56.960Z,151979.13
2024-04-14T06:31:26.429Z,151970.25
2024-04-14T06:33:53.256Z,151920.81
2024-04-14T06:36:20.074Z,151910.69
2024-04-14T06:38:46.855Z,151889.09
2024-04-14T06:41:14.361Z,151908.13
2024-04-14T06:43:41.130Z,151917.00
2024-04-14T06:46:07.930Z,151901.78
2024-04-14T06:48:37.354Z,151896.75
2024-04-14T06:51:04.156Z,151949.97
2024-04-14T06:53:30.888Z,152000.72
2024-04-14T06:55:57.629Z,152004.50
2024-04-14T06:58:24.450Z,152013.34
2024-04-14T07:00:51.522Z,151994.34
2024-04-14T07:03:18.335Z,151956.31
2024-04-14T07:05:47.817Z,151975.31
2024-04-14T07:08:14.616Z,151937.28
2024-04-14T07:10:41.351Z,151946.19
2024-04-14T07:13:08.137Z,151944.88
2024-04-14T07:15:34.969Z,152000.72
2024-04-14T07:18:01.948Z,152021.00
2024-04-14T07:20:30.107Z,152024.78
2024-04-14T07:22:59.569Z,152017.16
2024-04-14T07:25:26.402Z,152028.56
2024-04-14T07:27:53.286Z,152026.03
2024-04-14T07:30:22.165Z,152017.16
2024-04-14T07:32:49.065Z,152047.59
2024-04-14T07:35:15.892Z,152045.06
2024-04-14T07:37:42.640Z,152109.81
2024-04-14T07:40:12.354Z,152102.19
2024-04-14T07:42:39.186Z,152089.44
2024-04-14T07:45:06.548Z,152144.00
2024-04-14T07:47:33.345Z,152132.63
2024-04-14T07:50:00.163Z,152081.84
2024-04-14T07:52:27.045Z,152055.22
2024-04-14T07:54:54.030Z,152089.44
2024-04-14T07:57:23.535Z,152019.72
2024-04-14T07:59:50.327Z,152043.81
2024-04-14T08:02:17.073Z,152033.63
2024-04-14T08:04:44.032Z,152079.31
2024-04-14T08:07:10.878Z,152109.81
2024-04-14T08:09:37.813Z,152131.38
2024-04-14T08:12:07.641Z,152160.50
2024-04-14T08:14:38.150Z,152111.09
2024-04-14T08:17:05.009Z,152098.38
2024-04-14T08:19:31.789Z,152130.09
2024-04-14T08:21:58.583Z,152121.19
2024-04-14T08:24:25.459Z,152133.91
2024-04-14T08:26:52.277Z,152127.56
2024-04-14T08:29:19.044Z,152113.63
2024-04-14T08:31:48.449Z,152099.66
2024-04-14T08:34:15.315Z,152070.41
2024-04-14T08:36:42.158Z,152135.16
2024-04-14T08:39:09.077Z,152151.66
2024-04-14T08:41:40.982Z,152193.50
2024-04-14T08:44:09.192Z,152177.00
2024-04-14T08:46:36.438Z,152187.19
2024-04-14T08:49:06.007Z,152166.88
2024-04-14T08:51:32.922Z,152154.19
2024-04-14T08:54:00.547Z,152213.81
2024-04-14T08:56:30.329Z,152260.75
2024-04-14T08:59:02.377Z,152292.50
2024-04-14T09:01:29.431Z,152307.75
2024-04-14T09:03:56.368Z,152316.59
2024-04-14T09:06:31.247Z,152402.91
2024-04-14T09:08:59.145Z,152343.28
2024-04-14T09:11:25.910Z,152316.59
2024-04-14T09:13:52.812Z,152295.03
2024-04-14T09:16:19.626Z,152334.38
2024-04-14T09:18:46.458Z,152449.91
2024-04-14T09:21:13.341Z,152400.38
2024-04-14T09:23:42.809Z,152467.69
2024-04-14T09:26:09.659Z,152489.31
2024-04-14T09:28:36.523Z,152479.13
2024-04-14T09:31:03.448Z,152395.28
2024-04-14T09:33:33.101Z,152347.06
2024-04-14T09:36:00.146Z,152387.69
2024-04-14T09:38:27.782Z,152350.88
2024-04-14T09:40:57.964Z,152381.34
2024-04-14T09:43:25.927Z,152467.69
2024-04-14T09:45:56.000Z,152493.09
2024-04-14T09:48:26.129Z,152597.25
2024-04-14T09:50:55.276Z,152593.41
2024-04-14T09:53:24.116Z,152579.47
2024-04-14T09:55:50.954Z,152527.38
2024-04-14T09:58:20.483Z,152515.94
2024-04-14T10:00:48.498Z,152588.34
2024-04-14T10:03:16.778Z,152597.25
2024-04-14T10:05:45.023Z,152517.22
2024-04-14T10:08:11.885Z,152457.56
2024-04-14T10:10:38.869Z,152456.28
2024-04-14T10:13:08.043Z,152468.94
2024-04-14T10:15:38.046Z,152519.75
2024-04-14T10:18:11.473Z,152515.94
2024-04-14T10:20:46.593Z,152508.34
2024-04-14T10:23:19.237Z,152438.50
2024-04-14T10:25:46.843Z,152447.38
2024-04-14T10:28:16.348Z,152499.44
2024-04-14T10:30:46.278Z,152496.91
2024-04-14T10:33:20.679Z,152391.47
2024-04-14T10:35:47.661Z,152383.88
2024-04-14T10:38:21.134Z,152306.41
2024-04-14T10:40:48.033Z,152385.16
2024-04-14T10:43:15.895Z,152432.13
2024-04-14T10:45:45.395Z,152521.00
2024-04-14T10:48:12.249Z,152564.22
2024-04-14T10:50:38.995Z,152526.13
2024-04-14T10:53:05.789Z,152419.47
2024-04-14T10:55:32.743Z,152345.81
2024-04-14T10:57:59.599Z,152364.84
2024-04-14T11:00:26.647Z,152339.44
2024-04-14T11:02:57.183Z,152394.00
2024-04-14T11:05:24.916Z,152476.59
2024-04-14T11:07:52.809Z,152423.28
2024-04-14T11:10:21.797Z,152420.72
2024-04-14T11:12:49.003Z,152427.06
2024-04-14T11:15:15.969Z,152477.84
2024-04-14T11:17:43.015Z,152503.22
2024-04-14T11:20:16.609Z,152523.59
2024-04-14T11:22:44.049Z,152519.75
2024-04-14T11:25:11.020Z,152503.22
2024-04-14T11:27:38.293Z,152598.50
2024-04-14T11:30:05.936Z,152632.81
2024-04-14T11:32:36.934Z,152710.34
2024-04-14T11:35:05.252Z,152791.63
2024-04-14T11:37:37.596Z,152792.91
2024-04-14T11:40:09.292Z,152912.38
2024-04-14T11:42:38.299Z,153016.69
2024-04-14T11:45:06.452Z,153087.91
2024-04-14T11:47:33.387Z,153180.75
2024-04-14T11:50:00.261Z,153033.22
2024-04-14T11:52:27.103Z,153138.78
2024-04-14T11:54:56.598Z,153140.06
2024-04-14T11:57:23.957Z,152982.38
2024-04-14T11:59:50.864Z,152855.19
2024-04-14T12:02:17.916Z,152974.72
2024-04-14T12:04:44.879Z,153025.56
2024-04-14T12:07:11.739Z,153118.41
2024-04-14T12:09:38.576Z,153047.19
2024-04-14T12:12:11.216Z,152897.13
2024-04-14T12:14:38.753Z,152808.16
2024-04-14T12:17:05.784Z,152791.63
2024-04-14T12:19:32.594Z,152773.84
2024-04-14T12:21:59.412Z,152714.13
2024-04-14T12:24:26.293Z,152743.38
2024-04-14T12:26:53.687Z,152684.84
2024-04-14T12:29:23.213Z,152701.41
2024-04-14T12:31:50.083Z,152655.66
2024-04-14T12:34:17.225Z,152683.59
2024-04-14T12:36:44.072Z,152739.53
2024-04-14T12:39:16.953Z,152775.09
2024-04-14T12:41:47.650Z,152876.78
2024-04-14T12:44:14.385Z,152912.38
2024-04-14T12:46:43.791Z,152770.03
2024-04-14T12:49:10.590Z,152918.72
2024-04-14T12:51:37.444Z,153101.91
2024-04-14T12:54:06.201Z,153109.53
2024-04-14T12:56:34.235Z,153142.59
2024-04-14T12:59:00.985Z,153100.59
2024-04-14T13:01:28.396Z,152959.44
2024-04-14T13:03:57.959Z,153056.09
2024-04-14T13:06:24.762Z,153104.44
2024-04-14T13:08:51.771Z,153207.44
2024-04-14T13:11:18.875Z,153197.28
2024-04-14T13:13:45.814Z,153077.72
2024-04-14T13:16:12.808Z,153140.06
2024-04-14T13:18:39.707Z,153260.94
2024-04-14T13:21:09.238Z,153217.63
2024-04-14T13:23:39.485Z,153134.94
2024-04-14T13:26:07.723Z,153238.03
2024-04-14T13:28:34.461Z,153244.38
2024-04-14T13:31:01.236Z,153150.22
2024-04-14T13:33:28.112Z,153166.75
2024-04-14T13:35:54.930Z,153168.00
2024-04-14T13:38:24.256Z,153099.31
2024-04-14T13:40:51.012Z,153118.41
2024-04-14T13:43:18.375Z,153011.63
2024-04-14T13:45:45.507Z,153047.19
2024-04-14T13:48:12.383Z,153132.41
2024-04-14T13:50:39.271Z,153155.28
2024-04-14T13:53:06.090Z,153105.72
2024-04-14T13:55:35.514Z,153212.56
2024-04-14T13:58:02.499Z,153234.22
2024-04-14T14:00:29.319Z,153239.31
2024-04-14T14:02:56.474Z,153288.94
2024-04-14T14:05:23.599Z,153190.91
2024-04-14T14:07:50.377Z,153168.00
2024-04-14T14:10:20.492Z,153099.31
2024-04-14T14:12:50.310Z,153064.97
2024-04-14T14:15:17.250Z,153058.63
2024-04-14T14:17:44.147Z,153026.84
2024-04-14T14:20:11.059Z,153095.53
2024-04-14T14:22:37.847Z,153147.66
2024-04-14T14:25:06.089Z,153119.66
2024-04-14T14:27:34.111Z,153174.41
2024-04-14T14:30:07.302Z,153309.28
2024-04-14T14:32:34.714Z,153264.78
2024-04-14T14:35:01.467Z,153183.28
2024-04-14T14:37:28.264Z,153095.53
2024-04-14T14:39:55.125Z,153100.59
2024-04-14T14:42:21.883Z,153166.75
2024-04-14T14:44:48.829Z,153113.31
2024-04-14T14:47:18.911Z,153189.63
2024-04-14T14:49:45.942Z,153268.59
2024-04-14T14:52:12.815Z,153118.41
2024-04-14T14:54:39.739Z,152954.31
2024-04-14T14:57:06.490Z,152979.81
2024-04-14T14:59:33.278Z,153020.50
2024-04-14T15:02:00.077Z,152983.63
2024-04-14T15:04:32.834Z,152958.16
2024-04-14T15:06:59.705Z,152921.31
2024-04-14T15:09:26.489Z,152914.91
2024-04-14T15:11:53.329Z,152894.59
2024-04-14T15:14:20.169Z,152889.53
2024-04-14T15:16:47.230Z,152916.19
2024-04-14T15:19:14.491Z,152897.13
2024-04-14T15:21:43.943Z,152940.38
2024-04-14T15:24:10.754Z,152879.34
2024-04-14T15:26:37.638Z,152836.13
2024-04-14T15:29:04.431Z,152771.31
2024-04-14T15:31:31.522Z,152762.44
2024-04-14T15:33:58.489Z,152810.69
2024-04-14T15:36:25.278Z,152833.59
2024-04-14T15:38:54.575Z,152743.38
2024-04-14T15:41:21.880Z,152561.69
2024-04-14T15:43:49.067Z,152533.72
2024-04-14T15:46:15.915Z,152575.63
2024-04-14T15:48:42.779Z,152595.97
2024-04-14T15:51:18.072Z,152602.31
2024-04-14T15:53:47.544Z,152616.28
2024-04-14T15:56:17.125Z,152593.41
2024-04-14T15:58:43.935Z,152580.72
2024-04-14T16:01:10.873Z,152588.34
2024-04-14T16:03:38.015Z,152598.50
2024-04-14T16:06:05.217Z,152569.28
2024-04-14T16:08:32.057Z,152588.34
2024-04-14T16:11:03.060Z,152547.69
2024-04-14T16:13:32.890Z,152540.06
2024-04-14T16:16:07.995Z,152604.84
2024-04-14T16:18:34.998Z,152575.63
2024-04-14T16:21:01.957Z,152540.06
2024-04-14T16:23:31.354Z,152521.00
2024-04-14T16:25:58.267Z,152513.41
2024-04-14T16:28:25.111Z,152509.63
2024-04-14T16:30:54.592Z,152519.75
2024-04-14T16:33:21.522Z,152470.25
2024-04-14T16:35:48.291Z,152451.22
2024-04-14T16:38:15.160Z,152433.44
2024-04-14T16:40:41.914Z,152405.44
2024-04-14T16:43:08.746Z,152411.81
2024-04-14T16:45:35.598Z,152414.34
2024-04-14T16:48:05.945Z,152420.72
2024-04-14T16:50:32.906Z,152448.63
2024-04-14T16:52:59.696Z,152453.75
2024-04-14T16:55:26.703Z,152444.84
2024-04-14T16:57:53.643Z,152416.94
2024-04-14T17:00:20.734Z,152404.19
2024-04-14T17:02:47.571Z,152391.47
2024-04-14T17:05:17.259Z,152399.13
2024-04-14T17:07:44.034Z,152367.38
2024-04-14T17:10:10.979Z,152315.31
2024-04-14T17:12:37.954Z,152279.78
2024-04-14T17:15:06.493Z,152303.88
2024-04-14T17:17:33.312Z,152282.31
2024-04-14T17:20:00.160Z,152270.94
2024-04-14T17:22:30.098Z,152254.44
2024-04-14T17:24:57.362Z,152255.69
2024-04-14T17:27:24.263Z,152245.53
2024-04-14T17:29:51.143Z,152221.44
2024-04-14T17:32:19.155Z,152183.38
2024-04-14T17:34:46.190Z,152165.63
2024-04-14T17:37:13.240Z,152141.50
2024-04-14T17:39:42.769Z,152150.41
2024-04-14T17:42:09.640Z,152188.44
2024-04-14T17:44:37.048Z,152201.16
2024-04-14T17:47:04.435Z,152197.31
2024-04-14T17:49:31.393Z,152190.97
2024-04-14T17:51:58.497Z,152174.47
2024-04-14T17:54:25.383Z,152159.25
2024-04-14T17:56:54.866Z,152157.97
2024-04-14T17:59:22.055Z,152169.41
2024-04-14T18:01:49.140Z,152133.91
2024-04-14T18:04:18.059Z,152116.13
2024-04-14T18:06:45.014Z,152104.72
2024-04-14T18:09:11.916Z,152084.38
2024-04-14T18:11:39.027Z,152122.47
2024-04-14T18:14:09.804Z,152098.38
2024-04-14T18:16:37.719Z,152083.09
2024-04-14T18:19:04.978Z,152062.81
2024-04-14T18:21:31.994Z,152093.28
2024-04-14T18:24:01.555Z,152080.56
2024-04-14T18:26:28.879Z,152084.38
2024-04-14T18:28:55.838Z,152079.31
2024-04-14T18:31:25.471Z,152080.56
2024-04-14T18:33:52.864Z,152057.75
2024-04-14T18:36:19.904Z,152029.84
2024-04-14T18:38:46.966Z,152051.38
2024-04-14T18:41:13.955Z,152045.06
2024-04-14T18:43:40.856Z,152028.56
2024-04-14T18:46:07.902Z,152022.25
2024-04-14T18:48:37.608Z,152045.06
2024-04-14T18:51:05.044Z,152055.22
2024-04-14T18:53:32.011Z,152043.81
2024-04-14T18:56:00.262Z,152013.34
2024-04-14T18:58:31.322Z,151996.88
2024-04-14T19:00:59.681Z,152003.22
2024-04-14T19:03:26.623Z,151993.06
2024-04-14T19:06:01.261Z,152003.22
2024-04-14T19:08:28.310Z,152004.50
2024-04-14T19:10:55.152Z,151990.53
2024-04-14T19:13:22.187Z,151971.53
2024-04-14T19:15:57.595Z,151951.25
2024-04-14T19:18:24.338Z,151961.34
2024-04-14T19:20:51.094Z,151967.72
2024-04-14T19:23:20.599Z,151908.13
2024-04-14T19:25:47.753Z,151871.34
2024-04-14T19:28:16.881Z,151857.44
2024-04-14T19:30:44.265Z,151813.06
2024-04-14T19:33:11.454Z,151830.81
2024-04-14T19:35:46.727Z,151811.81
2024-04-14T19:38:23.934Z,151804.22
2024-04-14T19:40:50.820Z,151799.13
2024-04-14T19:43:17.729Z,151809.28
2024-04-14T19:45:44.606Z,151821.97
2024-04-14T19:48:11.522Z,151818.13
2024-04-14T19:50:38.462Z,151816.84
2024-04-14T19:53:05.347Z,151818.13
2024-04-14T19:55:35.387Z,151808.00
2024-04-14T19:58:02.314Z,151789.00
2024-04-14T20:00:29.277Z,151778.84
2024-04-14T20:02:56.271Z,151792.78
2024-04-14T20:05:23.324Z,151809.28
2024-04-14T20:07:50.192Z,151775.06
2024-04-14T20:10:17.106Z,151792.78
2024-04-14T20:12:46.953Z,151734.47
2024-04-14T20:15:14.050Z,151704.06
2024-04-14T20:17:40.914Z,151710.38
2024-04-14T20:20:08.772Z,151723.06
2024-04-14T20:22:35.600Z,151729.41
2024-04-14T20:25:03.140Z,151739.53
2024-04-14T20:27:32.307Z,151709.09
2024-04-14T20:30:02.347Z,151719.25
2024-04-14T20:32:29.218Z,151709.09
2024-04-14T20:34:56.095Z,151704.06
2024-04-14T20:37:22.921Z,151707.84
2024-04-14T20:39:49.726Z,151721.78
2024-04-14T20:42:18.096Z,151733.22
2024-04-14T20:44:46.071Z,151683.78
2024-04-14T20:47:17.366Z,151688.84
2024-04-14T20:49:45.587Z,151699.00
2024-04-14T20:52:12.443Z,151664.78
2024-04-14T20:54:39.428Z,151663.53
2024-04-14T20:57:06.301Z,151663.53
2024-04-14T20:59:33.167Z,151673.63
2024-04-14T21:02:00.052Z,151682.53
2024-04-14T21:04:35.840Z,151688.84
2024-04-14T21:07:10.200Z,151683.78
2024-04-14T21:09:37.129Z,151633.09
2024-04-14T21:12:04.582Z,151549.53
2024-04-14T21:14:31.475Z,151545.72
2024-04-14T21:16:58.266Z,151601.44
2024-04-14T21:19:25.099Z,151623.00
2024-04-14T21:21:54.595Z,151624.25
2024-04-14T21:24:21.426Z,151606.53
2024-04-14T21:26:48.358Z,151558.38
2024-04-14T21:29:15.178Z,151529.25
2024-04-14T21:31:42.216Z,151541.91
2024-04-14T21:34:09.086Z,151541.91
2024-04-14T21:36:36.089Z,151554.59
2024-04-14T21:39:05.546Z,151577.38
2024-04-14T21:41:32.331Z,151588.78
2024-04-14T21:43:59.145Z,151602.69
2024-04-14T21:46:25.944Z,151619.16
2024-04-14T21:48:52.801Z,151628.06
2024-04-14T21:51:19.588Z,151624.25
2024-04-14T21:53:46.423Z,151638.16
2024-04-14T21:56:15.779Z,151577.38
2024-04-14T21:58:42.560Z,151559.66
2024-04-14T22:01:13.376Z,151535.59
2024-04-14T22:03:40.347Z,151539.41
2024-04-14T22:06:07.205Z,151501.41
2024-04-14T22:08:34.164Z,151549.53
2024-04-14T22:11:01.110Z,151560.91
2024-04-14T22:13:30.654Z,151524.19
2024-04-14T22:15:57.791Z,151555.84
2024-04-14T22:18:24.654Z,151536.88
2024-04-14T22:20:51.503Z,151571.06
2024-04-14T22:23:18.334Z,151562.19
2024-04-14T22:25:45.206Z,151578.66
2024-04-14T22:28:12.114Z,151567.28
2024-04-14T22:30:41.722Z,151586.28
2024-04-14T22:33:08.933Z,151598.91
2024-04-14T22:35:35.755Z,151569.81
2024-04-14T22:38:03.042Z,151516.63
2024-04-14T22:40:30.911Z,151530.50
2024-04-14T22:42:57.956Z,151503.94
2024-04-14T22:45:25.022Z,151460.91
2024-04-14T22:47:56.268Z,151465.97
2024-04-14T22:50:23.094Z,151454.53
2024-04-14T22:52:49.953Z,151445.72
2024-04-14T22:55:16.842Z,151428.00
2024-04-14T22:57:43.775Z,151422.88
2024-04-14T23:00:11.243Z,151400.13
2024-04-14T23:02:38.273Z,151392.53
2024-04-14T23:05:08.083Z,151401.38
2024-04-14T23:07:34.828Z,151369.78
2024-04-14T23:10:01.713Z,151354.56
2024-04-14T23:12:28.634Z,151326.66
2024-04-14T23:14:55.332Z,151339.34
2024-04-14T23:17:22.297Z,151331.72
2024-04-14T23:19:49.066Z,151336.81
2024-04-14T23:22:18.553Z,151273.50
2024-04-14T23:24:45.806Z,151310.22
2024-04-14T23:27:12.556Z,151302.63
2024-04-14T23:29:39.324Z,151281.13
2024-04-14T23:32:07.087Z,151278.56
2024-04-14T23:34:34.023Z,151291.22
2024-04-14T23:37:01.913Z,151272.25
2024-04-14T23:39:31.353Z,151287.44
2024-04-14T23:41:58.321Z,151250.75
2024-04-14T23:44:25.150Z,151245.69
2024-04-14T23:46:51.899Z,151231.78
2024-04-14T23:49:18.748Z,151207.75
2024-04-14T23:51:45.596Z,151202.66
2024-04-14T23:54:12.450Z,151125.50
2024-04-14T23:56:41.836Z,151139.44
2024-04-14T23:59:08.591Z,151154.63
